createdAt,value
2022-09-04T00:03:10.687Z,15.45
2022-09-04T00:06:00.427Z,15.44
2022-09-04T00:08:45.731Z,15.39
2022-09-04T00:11:32.020Z,15.36
2022-09-04T00:14:02.560Z,15.31
2022-09-04T00:16:43.041Z,15.34
2022-09-04T00:19:20.148Z,15.32
2022-09-04T00:22:01.960Z,15.27
2022-09-04T00:24:38.538Z,15.29
2022-09-04T00:27:11.336Z,15.27
2022-09-04T00:29:59.505Z,15.24
2022-09-04T00:32:40.919Z,15.20
2022-09-04T00:35:15.671Z,15.20
2022-09-04T00:37:57.494Z,15.19
2022-09-04T00:40:35.713Z,15.14
2022-09-04T00:43:20.996Z,15.14
2022-09-04T00:46:01.220Z,15.13
2022-09-04T00:49:06.156Z,15.11
2022-09-04T00:51:47.845Z,15.06
2022-09-04T00:54:39.742Z,15.07
2022-09-04T00:57:21.963Z,15.09
2022-09-04T00:59:54.792Z,15.06
2022-09-04T01:02:50.443Z,15.04
2022-09-04T01:05:40.280Z,15.07
2022-09-04T01:08:39.750Z,14.97
2022-09-04T01:11:22.011Z,14.96
2022-09-04T01:13:55.005Z,14.97
2022-09-04T01:16:34.291Z,15.03
2022-09-04T01:19:11.151Z,15.01
2022-09-04T01:22:15.784Z,15.00
2022-09-04T01:25:10.642Z,14.95
2022-09-04T01:27:51.356Z,14.86
2022-09-04T01:30:19.756Z,14.88
2022-09-04T01:33:11.030Z,14.85
2022-09-04T01:36:02.479Z,14.86
2022-09-04T01:38:50.989Z,14.87
2022-09-04T01:41:34.022Z,14.86
2022-09-04T01:44:07.422Z,14.83
2022-09-04T01:46:59.760Z,14.83
2022-09-04T01:49:36.966Z,14.75
2022-09-04T01:52:09.843Z,14.75
2022-09-04T01:54:57.076Z,14.68
2022-09-04T01:57:33.850Z,14.70
2022-09-04T02:00:23.061Z,14.71
2022-09-04T02:03:00.411Z,14.65
2022-09-04T02:05:52.076Z,14.66
2022-09-04T02:09:00.747Z,14.56
2022-09-04T02:11:30.182Z,14.56
2022-09-04T02:14:22.207Z,14.53
2022-09-04T02:17:02.561Z,14.57
2022-09-04T02:19:46.872Z,14.50
2022-09-04T02:22:44.607Z,14.47
2022-09-04T02:25:31.187Z,14.45
2022-09-04T02:28:37.553Z,14.42
2022-09-04T02:31:19.858Z,14.43
2022-09-04T02:34:09.428Z,14.44
2022-09-04T02:36:52.835Z,14.43
2022-09-04T02:39:46.231Z,14.37
2022-09-04T02:42:28.099Z,14.40
2022-09-04T02:45:24.128Z,14.39
2022-09-04T02:47:58.694Z,14.36
2022-09-04T02:51:06.447Z,14.28
2022-09-04T02:53:45.677Z,14.27
2022-09-04T02:56:21.398Z,14.24
2022-09-04T02:59:07.704Z,14.25
2022-09-04T03:01:59.301Z,14.22
2022-09-04T03:04:50.124Z,14.23
2022-09-04T03:07:44.013Z,14.21
2022-09-04T03:10:26.703Z,14.12
2022-09-04T03:13:03.088Z,14.13
2022-09-04T03:15:51.254Z,14.17
2022-09-04T03:18:46.252Z,14.13
2022-09-04T03:21:19.264Z,14.14
2022-09-04T03:23:50.741Z,14.07
2022-09-04T03:26:39.919Z,14.03
2022-09-04T03:29:21.937Z,13.94
2022-09-04T03:32:17.180Z,13.98
2022-09-04T03:34:59.404Z,13.95
2022-09-04T03:38:05.100Z,14.03
2022-09-04T03:40:43.110Z,13.98
2022-09-04T03:43:26.119Z,14.02
2022-09-04T03:46:13.221Z,14.01
2022-09-04T03:49:05.661Z,14.00
2022-09-04T03:51:51.148Z,14.00
2022-09-04T03:54:39.054Z,14.06
2022-09-04T03:57:39.285Z,14.11
2022-09-04T04:00:12.569Z,14.05
2022-09-04T04:02:47.065Z,14.06
2022-09-04T04:05:39.465Z,14.13
2022-09-04T04:08:20.439Z,14.16
2022-09-04T04:11:16.153Z,14.15
2022-09-04T04:14:05.106Z,14.16
2022-09-04T04:16:55.917Z,14.09
2022-09-04T04:19:47.856Z,14.10
2022-09-04T04:22:35.078Z,14.12
2022-09-04T04:25:12.156Z,14.08
2022-09-04T04:28:05.313Z,14.11
2022-09-04T04:30:53.151Z,14.09
2022-09-04T04:33:42.507Z,14.11
2022-09-04T04:36:42.027Z,14.11
2022-09-04T04:39:26.854Z,14.11
2022-09-04T04:42:11.443Z,14.17
2022-09-04T04:45:23.984Z,14.17
2022-09-04T04:47:56.883Z,14.08
2022-09-04T04:50:50.746Z,14.10
2022-09-04T04:53:24.839Z,14.07
2022-09-04T04:56:15.385Z,14.07
2022-09-04T04:58:54.531Z,14.06
2022-09-04T05:01:40.264Z,14.02
2022-09-04T05:04:17.848Z,14.07
2022-09-04T05:07:08.830Z,14.15
2022-09-04T05:09:51.290Z,14.11
2022-09-04T05:12:33.172Z,14.20
2022-09-04T05:15:17.871Z,14.22
2022-09-04T05:18:13.237Z,14.37
2022-09-04T05:21:00.224Z,14.33
2022-09-04T05:23:50.871Z,14.35
2022-09-04T05:26:56.247Z,14.32
2022-09-04T05:29:39.516Z,14.48
2022-09-04T05:32:14.178Z,14.59
2022-09-04T05:35:06.315Z,14.59
2022-09-04T05:38:04.538Z,14.61
2022-09-04T05:41:06.256Z,14.62
2022-09-04T05:44:08.501Z,14.73
2022-09-04T05:46:40.385Z,14.82
2022-09-04T05:49:42.238Z,15.00
2022-09-04T05:52:18.251Z,15.09
2022-09-04T05:55:07.300Z,15.06
2022-09-04T05:57:59.958Z,15.08
2022-09-04T06:00:35.860Z,15.30
2022-09-04T06:03:38.049Z,15.42
2022-09-04T06:06:38.521Z,15.58
2022-09-04T06:09:39.613Z,16.02
2022-09-04T06:12:23.954Z,16.12
2022-09-04T06:15:14.189Z,16.38
2022-09-04T06:18:05.141Z,16.71
2022-09-04T06:20:59.576Z,16.69
2022-09-04T06:24:06.491Z,16.56
2022-09-04T06:26:54.513Z,16.54
2022-09-04T06:29:45.472Z,16.49
2022-09-04T06:32:45.235Z,16.68
2022-09-04T06:35:28.314Z,16.89
2022-09-04T06:38:12.031Z,17.35
2022-09-04T06:40:48.021Z,17.98
2022-09-04T06:43:34.176Z,18.05
2022-09-04T06:46:24.112Z,18.00
2022-09-04T06:49:13.316Z,17.61
2022-09-04T06:51:44.426Z,17.88
2022-09-04T06:54:42.491Z,18.21
2022-09-04T06:57:35.217Z,18.81
2022-09-04T07:00:12.945Z,19.87
2022-09-04T07:03:05.036Z,21.04
2022-09-04T07:05:34.946Z,22.25
2022-09-04T07:08:21.562Z,21.56
2022-09-04T07:11:14.951Z,22.71
2022-09-04T07:13:57.168Z,23.39
2022-09-04T07:16:35.792Z,22.66
2022-09-04T07:19:24.827Z,22.77
2022-09-04T07:22:22.904Z,23.13
2022-09-04T07:25:23.198Z,23.79
2022-09-04T07:27:52.763Z,23.89
2022-09-04T07:30:20.207Z,24.07
2022-09-04T07:32:56.413Z,24.74
2022-09-04T07:35:49.094Z,24.96
2022-09-04T07:38:43.425Z,24.51
2022-09-04T07:41:35.112Z,23.87
2022-09-04T07:44:24.289Z,23.93
2022-09-04T07:47:26.742Z,23.02
2022-09-04T07:50:04.007Z,22.88
2022-09-04T07:52:36.640Z,22.49
2022-09-04T07:55:31.829Z,22.69
2022-09-04T07:58:33.038Z,22.61
2022-09-04T08:01:31.164Z,22.66
2022-09-04T08:04:15.069Z,22.81
2022-09-04T08:06:49.969Z,22.74
2022-09-04T08:09:41.608Z,21.86
2022-09-04T08:12:30.816Z,21.48
2022-09-04T08:15:21.970Z,21.80
2022-09-04T08:18:01.611Z,21.42
2022-09-04T08:20:51.677Z,21.52
2022-09-04T08:24:13.006Z,21.61
2022-09-04T08:27:09.856Z,22.00
2022-09-04T08:29:50.753Z,22.00
2022-09-04T08:32:46.064Z,22.19
2022-09-04T08:35:27.336Z,22.12
2022-09-04T08:38:22.120Z,22.08
2022-09-04T08:41:14.108Z,22.03
2022-09-04T08:44:13.833Z,21.63
2022-09-04T08:47:18.873Z,21.60
2022-09-04T08:49:46.346Z,21.18
2022-09-04T08:52:25.533Z,21.03
2022-09-04T08:55:21.374Z,21.36
2022-09-04T08:58:14.083Z,21.32
2022-09-04T09:00:56.057Z,21.13
2022-09-04T09:03:45.171Z,20.98
2022-09-04T09:06:19.797Z,21.48
2022-09-04T09:09:05.040Z,21.89
2022-09-04T09:11:50.851Z,22.36
2022-09-04T09:14:31.327Z,22.55
2022-09-04T09:17:34.763Z,22.49
2022-09-04T09:20:22.225Z,22.03
2022-09-04T09:23:18.141Z,22.38
2022-09-04T09:25:50.710Z,22.41
2022-09-04T09:28:54.594Z,22.60
2022-09-04T09:31:52.819Z,23.03
2022-09-04T09:34:40.424Z,23.37
2022-09-04T09:37:21.576Z,23.17
2022-09-04T09:40:26.285Z,23.05
2022-09-04T09:43:22.411Z,22.97
2022-09-04T09:46:22.817Z,23.22
2022-09-04T09:49:27.029Z,23.75
2022-09-04T09:52:09.249Z,23.81
2022-09-04T09:55:07.252Z,23.54
2022-09-04T09:58:02.338Z,23.16
2022-09-04T10:00:57.193Z,23.89
2022-09-04T10:03:50.365Z,24.19
2022-09-04T10:07:08.828Z,23.71
2022-09-04T10:10:37.593Z,23.22
2022-09-04T10:13:20.618Z,24.25
2022-09-04T10:16:08.397Z,24.64
2022-09-04T10:19:06.721Z,24.80
2022-09-04T10:21:51.730Z,25.03
2022-09-04T10:24:46.826Z,25.36
2022-09-04T10:27:40.632Z,25.53
2022-09-04T10:30:49.894Z,24.83
2022-09-04T10:33:44.587Z,24.95
2022-09-04T10:36:30.946Z,25.34
2022-09-04T10:39:29.585Z,25.20
2022-09-04T10:42:03.851Z,24.06
2022-09-04T10:44:58.197Z,24.87
2022-09-04T10:47:44.951Z,25.21
2022-09-04T10:50:36.321Z,25.29
2022-09-04T10:53:28.601Z,24.76
2022-09-04T10:56:06.149Z,25.28
2022-09-04T10:58:59.885Z,25.44
2022-09-04T11:02:04.791Z,25.24
2022-09-04T11:04:45.723Z,24.77
2022-09-04T11:07:46.895Z,24.47
2022-09-04T11:10:22.473Z,24.98
2022-09-04T11:13:05.099Z,24.41
2022-09-04T11:15:50.393Z,24.71
2022-09-04T11:18:22.332Z,24.99
2022-09-04T11:21:02.979Z,25.24
2022-09-04T11:23:51.829Z,25.63
2022-09-04T11:26:41.330Z,25.91
2022-09-04T11:29:33.893Z,25.98
2022-09-04T11:32:26.108Z,25.58
2022-09-04T11:35:32.335Z,25.22
2022-09-04T11:38:01.506Z,25.42
2022-09-04T11:40:40.471Z,25.53
2022-09-04T11:43:37.465Z,25.76
2022-09-04T11:46:18.632Z,25.67
2022-09-04T11:49:00.484Z,25.51
2022-09-04T11:51:40.902Z,25.38
2022-09-04T11:54:35.156Z,25.26
2022-09-04T11:57:27.887Z,25.04
2022-09-04T12:00:08.093Z,25.11
2022-09-04T12:03:09.741Z,24.92
2022-09-04T12:05:44.399Z,24.83
2022-09-04T12:08:38.029Z,24.56
2022-09-04T12:11:22.573Z,24.44
2022-09-04T12:14:16.723Z,24.37
2022-09-04T12:16:57.611Z,24.02
2022-09-04T12:19:42.338Z,23.80
2022-09-04T12:22:14.452Z,23.96
2022-09-04T12:24:54.181Z,24.09
2022-09-04T12:27:48.161Z,23.96
2022-09-04T12:30:23.808Z,24.00
2022-09-04T12:33:08.352Z,24.00
2022-09-04T12:35:57.083Z,23.98
2022-09-04T12:38:32.388Z,24.05
2022-09-04T12:41:08.014Z,24.08
2022-09-04T12:44:16.936Z,24.03
2022-09-04T12:47:26.400Z,23.77
2022-09-04T12:50:27.276Z,23.85
2022-09-04T12:53:26.128Z,23.94
2022-09-04T12:56:49.056Z,23.94
2022-09-04T12:59:35.429Z,23.89
2022-09-04T13:02:10.402Z,23.90
2022-09-04T13:04:47.053Z,23.87
2022-09-04T13:07:50.501Z,23.93
2022-09-04T13:10:23.904Z,23.92
2022-09-04T13:13:10.839Z,23.86
2022-09-04T13:16:00.392Z,23.83
2022-09-04T13:19:00.182Z,23.86
2022-09-04T13:21:44.188Z,23.85
2022-09-04T13:24:26.588Z,23.91
2022-09-04T13:27:10.091Z,23.87
2022-09-04T13:30:03.037Z,23.87
2022-09-04T13:32:58.923Z,23.86
2022-09-04T13:35:42.608Z,23.86
2022-09-04T13:38:31.525Z,23.88
2022-09-04T13:41:36.672Z,23.82
2022-09-04T13:44:27.440Z,23.86
2022-09-04T13:47:00.898Z,23.79
2022-09-04T13:49:57.746Z,23.78
2022-09-04T13:52:34.331Z,23.83
2022-09-04T13:55:24.718Z,23.85
2022-09-04T13:58:13.107Z,23.88
2022-09-04T14:00:50.477Z,23.90
2022-09-04T14:03:45.487Z,23.91
2022-09-04T14:06:16.061Z,23.95
2022-09-04T14:08:45.126Z,23.99
2022-09-04T14:11:21.054Z,24.01
2022-09-04T14:14:12.980Z,24.00
2022-09-04T14:16:43.874Z,24.02
2022-09-04T14:19:31.150Z,24.09
2022-09-04T14:22:05.785Z,24.03
2022-09-04T14:25:03.670Z,23.95
2022-09-04T14:27:47.808Z,23.85
2022-09-04T14:30:22.209Z,23.90
2022-09-04T14:33:19.031Z,24.05
2022-09-04T14:36:16.040Z,24.02
2022-09-04T14:39:31.440Z,23.94
2022-09-04T14:42:12.187Z,23.93
2022-09-04T14:45:12.680Z,23.88
2022-09-04T14:47:54.652Z,23.88
2022-09-04T14:50:31.068Z,23.86
2022-09-04T14:53:04.535Z,23.90
2022-09-04T14:55:34.734Z,23.91
2022-09-04T14:58:10.966Z,23.86
2022-09-04T15:01:00.638Z,23.89
2022-09-04T15:03:34.127Z,23.90
2022-09-04T15:06:08.212Z,23.87
2022-09-04T15:08:40.638Z,23.81
2022-09-04T15:11:31.097Z,23.78
2022-09-04T15:14:24.334Z,23.79
2022-09-04T15:16:57.205Z,23.76
2022-09-04T15:19:49.428Z,23.61
2022-09-04T15:22:39.569Z,23.53
2022-09-04T15:25:17.910Z,23.51
2022-09-04T15:28:00.909Z,23.51
2022-09-04T15:30:39.823Z,23.51
2022-09-04T15:33:18.870Z,23.49
2022-09-04T15:36:04.232Z,23.49
2022-09-04T15:38:32.631Z,23.54
2022-09-04T15:41:19.327Z,23.47
2022-09-04T15:43:47.700Z,23.50
2022-09-04T15:46:57.067Z,23.39
2022-09-04T15:49:45.290Z,23.38
2022-09-04T15:52:41.307Z,23.37
2022-09-04T15:55:32.410Z,23.29
2022-09-04T15:58:16.807Z,23.28
2022-09-04T16:01:06.438Z,23.20
2022-09-04T16:03:43.346Z,23.23
2022-09-04T16:06:19.364Z,23.17
2022-09-04T16:08:54.908Z,23.13
2022-09-04T16:11:27.462Z,23.06
2022-09-04T16:14:04.805Z,23.04
2022-09-04T16:16:56.464Z,23.00
2022-09-04T16:19:38.796Z,22.95
2022-09-04T16:22:34.844Z,22.95
2022-09-04T16:25:32.740Z,22.92
2022-09-04T16:28:11.130Z,22.86
2022-09-04T16:30:54.468Z,22.85
2022-09-04T16:33:37.511Z,22.84
2022-09-04T16:36:06.206Z,22.83
2022-09-04T16:38:52.786Z,22.82
2022-09-04T16:41:37.511Z,22.77
2022-09-04T16:44:11.050Z,22.76
2022-09-04T16:47:02.477Z,22.69
2022-09-04T16:49:54.464Z,22.71
2022-09-04T16:52:35.322Z,22.64
2022-09-04T16:55:10.493Z,22.68
2022-09-04T16:57:46.298Z,22.61
2022-09-04T17:00:14.686Z,22.59
2022-09-04T17:02:53.507Z,22.60
2022-09-04T17:05:21.534Z,22.42
2022-09-04T17:08:34.610Z,22.42
2022-09-04T17:11:14.079Z,22.40
2022-09-04T17:13:58.737Z,22.38
2022-09-04T17:16:52.536Z,22.27
2022-09-04T17:19:21.847Z,22.17
2022-09-04T17:28:55.846Z,22.14
2022-09-04T17:29:00.942Z,22.09
2022-09-04T17:29:19.069Z,22.05
2022-09-04T17:31:17.336Z,21.98
2022-09-04T17:39:08.870Z,21.90
2022-09-04T17:40:39.916Z,21.81
2022-09-04T17:41:34.629Z,21.72
2022-09-04T17:43:27.732Z,21.59
2022-09-04T17:46:20.700Z,21.46
2022-09-04T17:48:48.060Z,21.40
2022-09-04T17:51:23.961Z,21.37
2022-09-04T17:53:54.939Z,21.30
2022-09-04T17:56:39.734Z,21.23
2022-09-04T17:59:17.931Z,21.17
2022-09-04T18:02:03.601Z,21.08
2022-09-04T18:04:34.483Z,21.02
2022-09-04T18:08:07.956Z,20.94
2022-09-04T18:10:49.304Z,20.83
2022-09-04T18:13:37.724Z,20.70
2022-09-04T18:16:10.751Z,20.66
2022-09-04T18:18:43.821Z,20.59
2022-09-04T18:21:20.761Z,20.53
2022-09-04T18:24:12.334Z,20.44
2022-09-04T18:26:51.462Z,20.33
2022-09-04T18:29:37.016Z,20.29
2022-09-04T18:37:18.793Z,20.04
2022-09-04T18:37:18.794Z,20.16
2022-09-04T18:38:36.877Z,19.94
2022-09-04T18:45:03.381Z,19.83
2022-09-04T18:50:24.919Z,19.75
2022-09-04T18:50:35.288Z,19.70
2022-09-04T18:51:20.733Z,19.64
2022-09-04T18:54:11.305Z,19.53
2022-09-04T18:56:47.860Z,19.49
2022-09-04T18:59:20.941Z,19.35
2022-09-04T19:02:19.025Z,19.34
2022-09-04T19:05:00.402Z,19.25
2022-09-04T19:07:52.432Z,19.18
2022-09-04T19:10:50.116Z,18.89
2022-09-04T19:14:06.349Z,18.88
2022-09-04T19:16:42.921Z,18.80
2022-09-04T19:19:29.225Z,18.74
2022-09-04T19:22:09.578Z,18.74
2022-09-04T19:24:39.173Z,18.76
2022-09-04T19:27:26.751Z,18.74
2022-09-04T19:30:17.567Z,18.66
2022-09-04T19:33:11.031Z,18.60
2022-09-04T19:36:03.578Z,18.56
2022-09-04T19:45:00.938Z,18.48
2022-09-04T19:46:00.061Z,18.44
2022-09-04T19:46:16.093Z,18.33
2022-09-04T19:48:11.591Z,18.30
2022-09-04T19:53:31.899Z,18.26
2022-09-04T19:53:49.454Z,18.18
2022-09-04T19:57:00.045Z,18.19
2022-09-04T19:59:44.881Z,18.10
2022-09-04T20:02:31.986Z,18.07
2022-09-04T20:05:02.850Z,18.10
2022-09-04T20:07:43.642Z,18.12
2022-09-04T20:10:32.510Z,18.12
2022-09-04T20:13:18.924Z,18.07
2022-09-04T20:16:00.580Z,18.01
2022-09-04T20:18:43.598Z,18.01
2022-09-04T20:21:26.362Z,17.99
2022-09-04T20:24:08.053Z,17.93
2022-09-04T20:26:54.806Z,17.92
2022-09-04T20:29:50.129Z,17.85
2022-09-04T20:32:25.469Z,17.85
2022-09-04T20:35:13.720Z,17.75
2022-09-04T20:38:23.197Z,17.69
2022-09-04T20:40:56.623Z,17.65
2022-09-04T20:43:37.031Z,17.68
2022-09-04T20:50:20.045Z,17.62
2022-09-04T20:52:50.936Z,17.52
2022-09-04T20:52:58.422Z,17.60
2022-09-04T20:55:59.038Z,17.50
2022-09-04T21:03:06.134Z,17.42
2022-09-04T21:03:22.136Z,17.36
2022-09-04T21:04:47.406Z,17.28
2022-09-04T21:07:31.035Z,17.22
2022-09-04T21:10:21.745Z,17.22
2022-09-04T21:13:23.641Z,17.26
2022-09-04T21:16:01.903Z,17.22
2022-09-04T21:19:27.893Z,17.21
2022-09-04T21:22:21.116Z,17.19
2022-09-04T21:25:22.647Z,17.25
2022-09-04T21:28:12.513Z,17.28
2022-09-04T21:31:06.642Z,17.23
2022-09-04T21:33:41.131Z,17.20
2022-09-04T21:36:30.098Z,17.08
2022-09-04T21:39:08.727Z,17.13
2022-09-04T21:41:57.492Z,17.12
2022-09-04T21:44:41.853Z,17.09
2022-09-04T21:47:44.715Z,17.12
2022-09-04T21:50:39.544Z,16.94
2022-09-04T21:53:17.121Z,17.04
2022-09-04T22:02:27.075Z,17.00
2022-09-04T22:02:43.812Z,16.97
2022-09-04T22:02:52.627Z,16.84
2022-09-04T22:05:35.540Z,16.81
2022-09-04T22:13:31.648Z,16.86
2022-09-04T22:13:37.959Z,16.77
2022-09-04T22:14:37.393Z,16.80
2022-09-04T22:17:37.476Z,16.81
2022-09-04T22:20:23.574Z,16.77
2022-09-04T22:23:27.336Z,16.73
2022-09-04T22:26:23.897Z,16.73
2022-09-04T22:29:39.806Z,16.72
2022-09-04T22:32:07.555Z,16.61
2022-09-04T22:35:19.996Z,16.62
2022-09-04T22:38:10.827Z,16.62
2022-09-04T22:40:56.057Z,16.57
2022-09-04T22:43:25.501Z,16.59
2022-09-04T22:46:30.731Z,16.48
2022-09-04T22:49:17.607Z,16.43
2022-09-04T22:52:09.911Z,16.47
2022-09-04T22:55:12.873Z,16.44
2022-09-04T22:58:26.527Z,16.36
2022-09-04T23:01:17.329Z,16.35
2022-09-04T23:04:08.403Z,16.26
2022-09-04T23:13:47.122Z,16.29
2022-09-04T23:13:47.800Z,16.26
2022-09-04T23:13:57.221Z,16.36
2022-09-04T23:16:28.593Z,16.43
2022-09-04T23:23:01.338Z,16.52
2022-09-04T23:26:34.208Z,16.62
2022-09-04T23:26:43.381Z,16.65
2022-09-04T23:28:29.763Z,16.71
2022-09-04T23:31:27.494Z,16.82
2022-09-04T23:34:21.257Z,16.79
2022-09-04T23:37:00.951Z,16.77
2022-09-04T23:39:49.675Z,16.89
2022-09-04T23:42:56.938Z,17.01
2022-09-04T23:46:08.612Z,17.05
2022-09-04T23:48:56.713Z,17.04
2022-09-04T23:51:45.625Z,17.04
2022-09-04T23:54:52.826Z,17.15
2022-09-04T23:57:29.101Z,17.16
